createdAt,value
2022-12-15T00:00:13.042Z,14.07
2022-12-15T00:02:57.971Z,13.37
2022-12-15T00:05:43.029Z,13.30
2022-12-15T00:08:29.227Z,12.83
2022-12-15T00:11:14.655Z,13.40
2022-12-15T00:14:00.189Z,12.53
2022-12-15T00:16:46.133Z,12.93
2022-12-15T00:19:31.142Z,12.70
2022-12-15T00:22:16.250Z,11.90
2022-12-15T00:25:01.392Z,12.13
2022-12-15T00:27:47.054Z,11.67
2022-12-15T00:30:32.194Z,13.10
2022-12-15T00:33:17.241Z,13.23
2022-12-15T00:36:02.348Z,13.40
2022-12-15T00:38:42.699Z,12.03
2022-12-15T00:41:10.319Z,11.40
2022-12-15T00:43:37.346Z,12.90
2022-12-15T00:46:23.630Z,12.57
2022-12-15T00:48:52.760Z,11.37
2022-12-15T00:51:19.902Z,11.50
2022-12-15T00:54:06.344Z,11.00
2022-12-15T00:56:51.343Z,12.03
2022-12-15T00:59:38.746Z,11.57
2022-12-15T01:02:24.368Z,11.17
2022-12-15T01:05:09.369Z,11.63
2022-12-15T01:07:54.257Z,11.47
2022-12-15T01:10:39.560Z,11.80
2022-12-15T01:13:25.435Z,11.90
2022-12-15T01:16:10.751Z,11.93
2022-12-15T01:18:56.142Z,11.80
2022-12-15T01:21:24.938Z,13.20
2022-12-15T01:23:54.895Z,12.30
2022-12-15T01:26:23.958Z,11.83
2022-12-15T01:28:50.510Z,12.60
2022-12-15T01:31:17.128Z,12.07
2022-12-15T01:33:48.437Z,12.37
2022-12-15T01:36:14.976Z,12.70
2022-12-15T01:38:45.093Z,11.10
2022-12-15T01:41:17.000Z,12.67
2022-12-15T01:43:43.536Z,12.50
2022-12-15T01:46:13.979Z,12.43
2022-12-15T01:48:46.739Z,12.13
2022-12-15T01:51:31.553Z,12.00
2022-12-15T01:54:00.309Z,11.17
2022-12-15T01:56:37.061Z,11.73
2022-12-15T01:59:07.644Z,12.47
2022-12-15T02:01:34.663Z,11.90
2022-12-15T02:04:01.804Z,11.97
2022-12-15T02:06:29.640Z,13.80
2022-12-15T02:08:59.577Z,12.33
2022-12-15T02:11:45.025Z,13.20
2022-12-15T02:14:14.649Z,13.07
2022-12-15T02:16:47.230Z,13.37
2022-12-15T02:19:35.140Z,12.97
2022-12-15T02:22:23.109Z,13.10
2022-12-15T02:25:06.552Z,13.13
2022-12-15T02:28:05.217Z,13.83
2022-12-15T02:31:12.694Z,12.23
2022-12-15T02:33:50.678Z,14.07
2022-12-15T02:36:26.656Z,13.93
2022-12-15T02:38:55.644Z,13.27
2022-12-15T02:41:32.485Z,13.70
2022-12-15T02:43:59.712Z,12.40
2022-12-15T02:46:42.158Z,13.90
2022-12-15T02:49:27.741Z,12.97
2022-12-15T02:52:24.654Z,13.40
2022-12-15T02:55:11.405Z,13.87
2022-12-15T02:57:43.793Z,13.23
2022-12-15T03:00:12.059Z,13.20
2022-12-15T03:02:42.597Z,15.00
2022-12-15T03:05:09.956Z,13.07
2022-12-15T03:07:36.692Z,14.43
2022-12-15T03:10:06.305Z,14.73
2022-12-15T03:12:32.888Z,13.70
2022-12-15T03:14:59.437Z,14.40
2022-12-15T03:17:25.963Z,13.27
2022-12-15T03:19:52.800Z,14.30
2022-12-15T03:22:19.318Z,14.43
2022-12-15T03:24:45.798Z,15.57
2022-12-15T03:27:12.357Z,15.80
2022-12-15T03:29:38.908Z,15.37
2022-12-15T03:32:08.627Z,14.20
2022-12-15T03:34:35.273Z,14.17
2022-12-15T03:37:04.147Z,15.40
2022-12-15T03:39:33.435Z,15.30
2022-12-15T03:41:59.995Z,13.70
2022-12-15T03:44:26.605Z,15.40
2022-12-15T03:47:03.526Z,13.57
2022-12-15T03:49:30.482Z,15.50
2022-12-15T03:51:59.330Z,14.83
2022-12-15T03:54:25.876Z,15.03
2022-12-15T03:56:55.043Z,15.67
2022-12-15T03:59:21.656Z,14.60
2022-12-15T04:01:49.383Z,15.03
2022-12-15T04:04:16.125Z,14.97
2022-12-15T04:06:42.653Z,16.03
2022-12-15T04:09:09.198Z,14.67
2022-12-15T04:11:38.081Z,14.73
2022-12-15T04:14:04.735Z,14.40
2022-12-15T04:16:31.976Z,16.27
2022-12-15T04:19:17.120Z,14.33
2022-12-15T04:21:43.714Z,14.80
2022-12-15T04:24:28.906Z,15.37
2022-12-15T04:27:13.745Z,14.73
2022-12-15T04:29:58.661Z,14.30
2022-12-15T04:32:44.069Z,14.47
2022-12-15T04:35:35.170Z,13.70
2022-12-15T04:38:20.554Z,14.03
2022-12-15T04:41:05.868Z,15.00
2022-12-15T04:43:51.373Z,13.63
2022-12-15T04:46:38.971Z,14.87
2022-12-15T04:49:24.114Z,14.53
2022-12-15T04:52:09.095Z,14.77
2022-12-15T04:54:54.476Z,15.50
2022-12-15T04:57:39.403Z,14.83
2022-12-15T05:00:25.396Z,16.13
2022-12-15T05:03:16.528Z,14.27
2022-12-15T05:06:03.323Z,14.57
2022-12-15T05:08:50.257Z,14.33
2022-12-15T05:11:35.713Z,14.80
2022-12-15T05:14:21.321Z,15.17
2022-12-15T05:17:06.796Z,15.43
2022-12-15T05:19:52.223Z,15.97
2022-12-15T05:22:39.981Z,16.20
2022-12-15T05:25:25.701Z,15.00
2022-12-15T05:28:10.623Z,14.17
2022-12-15T05:30:55.613Z,15.00
2022-12-15T05:33:24.463Z,14.90
2022-12-15T05:35:51.060Z,17.10
2022-12-15T05:38:18.557Z,15.03
2022-12-15T05:40:45.060Z,15.43
2022-12-15T05:43:11.635Z,15.77
2022-12-15T05:45:38.192Z,15.23
2022-12-15T05:48:05.006Z,15.83
2022-12-15T05:50:33.853Z,14.90
2022-12-15T05:53:00.383Z,14.80
2022-12-15T05:55:26.995Z,15.70
2022-12-15T05:57:54.389Z,16.33
2022-12-15T06:00:21.426Z,15.03
2022-12-15T06:02:48.380Z,15.20
2022-12-15T06:05:17.196Z,14.77
2022-12-15T06:07:43.695Z,15.60
2022-12-15T06:10:10.630Z,15.23
2022-12-15T06:12:39.477Z,16.70
2022-12-15T06:15:08.854Z,16.13
2022-12-15T06:17:35.505Z,15.63
2022-12-15T06:20:07.570Z,16.27
2022-12-15T06:22:36.304Z,16.33
2022-12-15T06:25:02.963Z,16.87
2022-12-15T06:27:37.638Z,16.00
2022-12-15T06:30:04.875Z,15.87
2022-12-15T06:32:35.357Z,15.27
2022-12-15T06:35:02.106Z,15.13
2022-12-15T06:37:28.678Z,16.40
2022-12-15T06:39:55.171Z,15.17
2022-12-15T06:42:24.106Z,15.93
2022-12-15T06:44:50.763Z,14.70
2022-12-15T06:47:17.951Z,16.43
2022-12-15T06:49:44.489Z,17.57
2022-12-15T06:52:13.473Z,17.30
2022-12-15T06:54:40.023Z,15.90
2022-12-15T06:57:06.887Z,16.37
2022-12-15T06:59:33.490Z,17.50
2022-12-15T07:02:00.699Z,18.83
2022-12-15T07:04:27.498Z,17.43
2022-12-15T07:06:54.149Z,17.93
2022-12-15T07:09:20.724Z,17.47
2022-12-15T07:11:50.311Z,18.70
2022-12-15T07:14:16.881Z,18.90
2022-12-15T07:16:46.197Z,18.33
2022-12-15T07:19:13.371Z,18.13
2022-12-15T07:21:41.164Z,19.13
2022-12-15T07:24:11.601Z,17.87
2022-12-15T07:26:38.274Z,18.33
2022-12-15T07:29:04.928Z,17.77
2022-12-15T07:31:32.221Z,17.40
2022-12-15T07:33:59.407Z,17.67
2022-12-15T07:36:27.545Z,18.57
2022-12-15T07:39:00.954Z,17.80
2022-12-15T07:41:30.508Z,18.13
2022-12-15T07:43:59.912Z,18.50
2022-12-15T07:46:26.596Z,18.57
2022-12-15T07:48:53.496Z,18.83
2022-12-15T07:51:21.589Z,19.50
2022-12-15T07:53:51.389Z,18.97
2022-12-15T07:56:21.210Z,21.20
2022-12-15T07:58:48.187Z,20.80
2022-12-15T08:01:15.660Z,21.00
2022-12-15T08:03:42.540Z,28.15
2022-12-15T08:06:13.053Z,23.23
2022-12-15T08:08:40.501Z,21.27
2022-12-15T08:11:09.361Z,20.63
2022-12-15T08:16:23.287Z,28.50
2022-12-15T08:18:49.922Z,22.73
2022-12-15T08:21:17.835Z,20.73
2022-12-15T08:23:44.571Z,20.40
2022-12-15T08:26:16.942Z,18.40
2022-12-15T08:28:43.701Z,18.47
2022-12-15T08:31:18.679Z,20.43
2022-12-15T08:33:46.389Z,19.30
2022-12-15T08:36:15.300Z,19.97
2022-12-15T08:38:46.022Z,20.93
2022-12-15T08:41:18.427Z,20.30
2022-12-15T08:43:48.992Z,20.00
2022-12-15T08:46:23.527Z,20.87
2022-12-15T08:48:52.892Z,19.97
2022-12-15T08:51:20.121Z,19.57
2022-12-15T08:53:47.356Z,20.80
2022-12-15T08:56:22.204Z,20.63
2022-12-15T08:58:50.457Z,20.63
2022-12-15T09:01:24.172Z,21.03
2022-12-15T09:03:55.924Z,19.27
2022-12-15T09:06:31.937Z,20.03
2022-12-15T09:09:00.893Z,19.53
2022-12-15T09:11:29.133Z,20.60
2022-12-15T09:13:56.152Z,20.17
2022-12-15T09:16:23.532Z,20.87
2022-12-15T09:18:54.561Z,21.13
2022-12-15T09:21:23.304Z,21.03
2022-12-15T09:23:52.035Z,20.80
2022-12-15T09:26:22.600Z,21.97
2022-12-15T09:28:50.656Z,21.20
2022-12-15T09:31:23.512Z,20.87
2022-12-15T09:33:52.842Z,21.20
2022-12-15T09:36:19.758Z,20.10
2022-12-15T09:38:46.381Z,21.43
2022-12-15T09:41:12.826Z,21.47
2022-12-15T09:44:13.040Z,30.87
2022-12-15T09:46:57.907Z,22.50
2022-12-15T09:49:36.596Z,20.57
2022-12-15T09:52:14.640Z,20.43
2022-12-15T09:54:43.263Z,21.07
2022-12-15T09:57:50.747Z,20.47
2022-12-15T10:00:55.144Z,21.33
2022-12-15T10:03:45.077Z,21.60
2022-12-15T10:06:18.485Z,20.37
2022-12-15T10:08:57.583Z,22.30
2022-12-15T10:11:24.116Z,21.17
2022-12-15T10:13:59.869Z,21.43
2022-12-15T10:16:34.429Z,21.20
2022-12-15T10:19:03.932Z,22.93
2022-12-15T10:21:31.724Z,22.07
2022-12-15T10:24:12.299Z,21.67
2022-12-15T10:26:41.411Z,21.87
2022-12-15T10:29:50.983Z,22.03
2022-12-15T10:32:39.352Z,21.57
2022-12-15T10:35:33.900Z,22.30
2022-12-15T10:38:03.786Z,22.20
2022-12-15T10:43:37.192Z,24.40
2022-12-15T10:46:19.621Z,24.40
2022-12-15T10:48:49.172Z,22.17
2022-12-15T10:51:24.938Z,23.30
2022-12-15T10:54:15.665Z,22.70
2022-12-15T10:56:51.348Z,21.97
2022-12-15T10:59:37.097Z,22.87
2022-12-15T11:02:25.209Z,22.80
2022-12-15T11:05:04.841Z,22.30
2022-12-15T11:07:37.472Z,23.03
2022-12-15T11:10:53.267Z,22.33
2022-12-15T11:13:23.096Z,23.70
2022-12-15T11:15:53.282Z,22.93
2022-12-15T11:18:24.537Z,22.53
2022-12-15T11:21:02.576Z,22.13
2022-12-15T11:23:46.790Z,21.33
2022-12-15T11:26:22.993Z,21.43
2022-12-15T11:29:20.796Z,21.53
2022-12-15T11:31:53.225Z,22.30
2022-12-15T11:34:37.791Z,22.10
2022-12-15T11:37:16.433Z,20.37
2022-12-15T11:40:13.262Z,22.43
2022-12-15T11:43:12.613Z,28.77
2022-12-15T11:46:10.103Z,24.70
2022-12-15T11:49:11.304Z,23.40
2022-12-15T11:52:02.321Z,21.63
2022-12-15T11:54:46.981Z,23.10
2022-12-15T11:57:30.677Z,21.60
2022-12-15T12:00:03.269Z,27.05
2022-12-15T12:02:39.243Z,22.17
2022-12-15T12:05:44.793Z,22.03
2022-12-15T12:08:43.909Z,20.77
2022-12-15T12:11:20.078Z,21.00
2022-12-15T12:14:11.691Z,20.23
2022-12-15T12:16:50.570Z,20.57
2022-12-15T12:19:31.936Z,20.90
2022-12-15T12:22:20.185Z,20.73
2022-12-15T12:25:02.216Z,21.90
2022-12-15T12:27:53.161Z,21.87
2022-12-15T12:30:31.330Z,21.37
2022-12-15T12:33:37.990Z,19.73
2022-12-15T12:36:16.073Z,19.33
2022-12-15T12:38:56.099Z,20.20
2022-12-15T12:41:53.439Z,20.97
2022-12-15T12:44:34.250Z,20.53
2022-12-15T12:47:10.215Z,20.00
2022-12-15T12:49:44.012Z,19.80
2022-12-15T12:52:28.123Z,20.20
2022-12-15T12:54:59.748Z,20.97
2022-12-15T12:57:36.885Z,21.20
2022-12-15T13:00:21.287Z,26.90
2022-12-15T13:03:09.990Z,23.10
2022-12-15T13:05:38.058Z,21.57
2022-12-15T13:08:05.107Z,20.37
2022-12-15T13:10:37.413Z,21.57
2022-12-15T13:13:16.325Z,20.57
2022-12-15T13:15:50.974Z,19.30
2022-12-15T13:18:25.487Z,20.07
2022-12-15T13:20:57.071Z,20.53
2022-12-15T13:23:23.634Z,20.97
2022-12-15T13:25:55.987Z,19.70
2022-12-15T13:28:29.079Z,20.27
2022-12-15T13:31:17.982Z,20.47
2022-12-15T13:33:57.369Z,20.30
2022-12-15T13:36:43.536Z,19.53
2022-12-15T13:39:12.896Z,20.10
2022-12-15T13:42:23.647Z,21.03
2022-12-15T13:44:41.220Z,20.63
2022-12-15T13:47:17.760Z,25.17
2022-12-15T13:50:08.955Z,21.47
2022-12-15T13:53:17.351Z,20.60
2022-12-15T13:55:41.839Z,20.27
2022-12-15T13:58:11.411Z,21.30
2022-12-15T14:00:39.850Z,20.53
2022-12-15T14:03:11.150Z,20.30
2022-12-15T14:05:43.062Z,19.90
2022-12-15T14:08:19.034Z,20.50
2022-12-15T14:10:52.680Z,19.77
2022-12-15T14:13:50.568Z,20.43
2022-12-15T14:16:23.062Z,20.70
2022-12-15T14:19:08.551Z,20.00
2022-12-15T14:21:35.323Z,21.40
2022-12-15T14:24:37.136Z,21.40
2022-12-15T14:26:50.731Z,20.47
2022-12-15T14:29:17.509Z,20.23
2022-12-15T14:31:48.295Z,19.97
2022-12-15T14:34:29.237Z,22.67
2022-12-15T14:36:59.521Z,25.40
2022-12-15T14:39:50.181Z,21.40
2022-12-15T14:42:25.863Z,20.80
2022-12-15T14:44:57.848Z,20.50
2022-12-15T14:48:30.313Z,21.70
2022-12-15T14:50:47.790Z,20.80
2022-12-15T14:53:19.910Z,21.70
2022-12-15T14:55:46.573Z,21.47
2022-12-15T14:58:34.678Z,21.43
2022-12-15T15:01:21.427Z,19.40
2022-12-15T15:03:06.720Z,27.80
2022-12-15T15:03:57.524Z,19.77
2022-12-15T15:06:33.537Z,23.70
2022-12-15T15:09:15.060Z,21.83
2022-12-15T15:11:42.961Z,19.20
2022-12-15T15:14:15.537Z,20.77
2022-12-15T15:16:42.977Z,20.43
2022-12-15T15:19:21.497Z,21.03
2022-12-15T15:21:48.493Z,19.33
2022-12-15T15:24:17.341Z,19.70
2022-12-15T15:26:44.135Z,21.90
2022-12-15T15:29:37.323Z,21.27
2022-12-15T15:32:16.048Z,21.83
2022-12-15T15:34:45.045Z,23.50
2022-12-15T15:37:24.950Z,22.03
2022-12-15T15:39:55.905Z,22.97
2022-12-15T15:42:26.583Z,30.55
2022-12-15T15:45:00.510Z,24.10
2022-12-15T15:47:27.451Z,23.90
2022-12-15T15:49:58.653Z,23.03
2022-12-15T15:52:25.917Z,21.03
2022-12-15T15:54:53.579Z,21.70
2022-12-15T15:57:20.359Z,21.40
2022-12-15T15:59:47.842Z,19.93
2022-12-15T16:02:14.895Z,21.87
2022-12-15T16:04:43.353Z,22.07
2022-12-15T16:07:28.681Z,20.57
2022-12-15T16:09:58.040Z,22.03
2022-12-15T16:12:29.861Z,21.57
2022-12-15T16:14:56.501Z,22.43
2022-12-15T16:17:24.381Z,29.67
2022-12-15T16:19:51.058Z,26.23
2022-12-15T16:22:20.299Z,28.00
2022-12-15T16:24:47.421Z,27.30
2022-12-15T16:27:15.313Z,25.27
2022-12-15T16:29:41.913Z,32.30
2022-12-15T16:32:10.696Z,27.43
2022-12-15T16:34:37.316Z,30.75
2022-12-15T16:37:14.460Z,32.08
2022-12-15T16:39:41.030Z,27.57
2022-12-15T16:42:12.054Z,26.47
2022-12-15T16:44:38.574Z,27.43
2022-12-15T16:47:05.179Z,27.20
2022-12-15T16:49:36.607Z,36.45
2022-12-15T16:52:06.503Z,39.03
2022-12-15T16:54:33.215Z,29.30
2022-12-15T16:57:02.203Z,25.87
2022-12-15T16:59:33.920Z,27.33
2022-12-15T17:02:01.605Z,26.60
2022-12-15T17:04:28.229Z,26.57
2022-12-15T17:06:57.107Z,26.30
2022-12-15T17:09:25.611Z,26.30
2022-12-15T17:12:02.424Z,26.57
2022-12-15T17:14:28.968Z,26.13
2022-12-15T17:16:55.700Z,25.80
2022-12-15T17:19:22.255Z,26.90
2022-12-15T17:21:52.485Z,26.80
2022-12-15T17:24:22.333Z,26.80
2022-12-15T17:26:51.359Z,27.20
2022-12-15T17:29:21.331Z,28.70
2022-12-15T17:31:48.027Z,26.70
2022-12-15T17:34:36.250Z,27.77
2022-12-15T17:37:07.581Z,27.87
2022-12-15T17:39:35.304Z,26.40
2022-12-15T17:42:16.545Z,28.17
2022-12-15T17:44:46.639Z,29.23
2022-12-15T17:47:14.698Z,34.30
2022-12-15T17:49:41.528Z,30.53
2022-12-15T17:52:16.651Z,30.47
2022-12-15T17:54:46.799Z,32.47
2022-12-15T17:57:13.374Z,30.83
2022-12-15T17:59:39.946Z,31.90
2022-12-15T18:02:08.730Z,31.73
2022-12-15T18:04:35.349Z,31.27
2022-12-15T18:07:02.672Z,30.90
2022-12-15T18:09:30.776Z,37.37
2022-12-15T18:11:57.365Z,33.70
2022-12-15T18:14:27.752Z,32.17
2022-12-15T18:16:56.355Z,33.40
2022-12-15T18:19:23.313Z,32.13
2022-12-15T18:21:49.853Z,31.17
2022-12-15T18:24:19.266Z,33.07
2022-12-15T18:26:45.790Z,33.80
2022-12-15T18:29:18.181Z,34.80
2022-12-15T18:31:49.408Z,34.90
2022-12-15T18:34:19.327Z,37.43
2022-12-15T18:36:45.936Z,35.93
2022-12-15T18:39:26.958Z,33.90
2022-12-15T18:41:55.948Z,35.90
2022-12-15T18:44:25.851Z,35.93
2022-12-15T18:46:55.542Z,39.77
2022-12-15T18:49:23.587Z,37.77
2022-12-15T18:51:50.603Z,36.70
2022-12-15T18:54:26.731Z,33.53
2022-12-15T18:56:55.781Z,30.40
2022-12-15T18:59:22.337Z,32.90
2022-12-15T19:01:49.181Z,32.40
2022-12-15T19:04:15.948Z,32.47
2022-12-15T19:06:45.174Z,33.17
2022-12-15T19:09:16.307Z,32.67
2022-12-15T19:12:08.039Z,34.33
2022-12-15T19:14:43.098Z,32.73
2022-12-15T19:17:40.330Z,34.00
2022-12-15T19:20:33.423Z,31.97
2022-12-15T19:23:00.237Z,34.47
2022-12-15T19:25:30.833Z,32.97
2022-12-15T19:27:59.725Z,32.90
2022-12-15T19:30:29.335Z,32.77
2022-12-15T19:32:56.361Z,33.27
2022-12-15T19:35:25.194Z,32.60
2022-12-15T19:37:55.162Z,32.93
2022-12-15T19:40:29.303Z,31.73
2022-12-15T19:42:56.544Z,33.97
2022-12-15T19:45:25.413Z,33.17
2022-12-15T19:47:54.360Z,30.47
2022-12-15T19:50:24.210Z,31.00
2022-12-15T19:52:55.253Z,40.47
2022-12-15T19:55:27.933Z,34.60
2022-12-15T19:57:54.426Z,32.20
2022-12-15T20:00:27.368Z,31.50
2022-12-15T20:02:57.828Z,30.30
2022-12-15T20:05:27.507Z,30.07
2022-12-15T20:07:54.991Z,30.00
2022-12-15T20:10:32.368Z,30.00
2022-12-15T20:13:03.339Z,31.37
2022-12-15T20:15:29.919Z,27.77
2022-12-15T20:17:57.066Z,28.70
2022-12-15T20:20:26.997Z,28.30
2022-12-15T20:22:56.447Z,27.50
2022-12-15T20:25:26.764Z,27.00
2022-12-15T20:27:53.773Z,25.97
2022-12-15T20:30:27.633Z,28.90
2022-12-15T20:32:54.296Z,28.93
2022-12-15T20:35:24.720Z,28.60
2022-12-15T20:37:52.593Z,28.80
2022-12-15T20:40:25.547Z,29.70
2022-12-15T20:42:56.643Z,29.80
2022-12-15T20:45:28.104Z,38.85
2022-12-15T20:47:58.011Z,31.60
2022-12-15T20:50:37.369Z,30.47
2022-12-15T20:53:06.075Z,28.20
2022-12-15T20:55:32.771Z,27.97
2022-12-15T20:57:59.300Z,28.37
2022-12-15T21:00:25.856Z,28.40
2022-12-15T21:02:55.244Z,27.33
2022-12-15T21:05:24.892Z,29.13
2022-12-15T21:07:52.402Z,29.13
2022-12-15T21:10:20.546Z,28.63
2022-12-15T21:12:49.312Z,27.90
2022-12-15T21:15:20.350Z,27.37
2022-12-15T21:17:57.936Z,26.97
2022-12-15T21:20:30.358Z,26.67
2022-12-15T21:22:59.649Z,28.23
2022-12-15T21:25:26.676Z,28.00
2022-12-15T21:27:53.267Z,30.50
2022-12-15T21:30:22.742Z,29.27
2022-12-15T21:32:50.878Z,28.43
2022-12-15T21:35:19.091Z,29.20
2022-12-15T21:37:49.628Z,27.97
2022-12-15T21:40:20.722Z,27.73
2022-12-15T21:42:48.753Z,32.53
2022-12-15T21:45:20.774Z,37.42
2022-12-15T21:48:06.903Z,38.90
2022-12-15T21:50:34.475Z,30.80
2022-12-15T21:53:04.950Z,29.57
2022-12-15T21:55:33.971Z,28.43
2022-12-15T21:58:00.624Z,28.17
2022-12-15T22:00:27.391Z,28.00
2022-12-15T22:02:54.500Z,28.03
2022-12-15T22:05:24.516Z,28.87
2022-12-15T22:07:51.596Z,28.77
2022-12-15T22:10:18.286Z,27.43
2022-12-15T22:12:50.706Z,29.57
2022-12-15T22:15:24.079Z,28.63
2022-12-15T22:17:50.765Z,28.03
2022-12-15T22:20:20.771Z,27.37
2022-12-15T22:22:50.179Z,28.20
2022-12-15T22:25:22.004Z,27.67
2022-12-15T22:27:48.869Z,29.07
2022-12-15T22:30:21.042Z,28.33
2022-12-15T22:32:47.787Z,26.60
2022-12-15T22:35:22.445Z,28.67
2022-12-15T22:37:54.033Z,27.47
2022-12-15T22:40:23.273Z,28.67
2022-12-15T22:42:54.855Z,28.37
2022-12-15T22:45:24.172Z,28.40
2022-12-15T22:47:52.386Z,29.43
2022-12-15T22:50:22.327Z,28.67
2022-12-15T22:52:51.109Z,30.10
2022-12-15T22:55:20.586Z,30.90
2022-12-15T22:57:57.657Z,31.03
2022-12-15T23:00:24.215Z,30.17
2022-12-15T23:02:51.044Z,30.80
2022-12-15T23:05:20.139Z,28.93
2022-12-15T23:07:47.163Z,29.47
2022-12-15T23:10:35.091Z,28.90
2022-12-15T23:13:01.602Z,28.20
2022-12-15T23:15:50.343Z,29.90
2022-12-15T23:18:18.454Z,28.90
2022-12-15T23:20:45.512Z,28.57
2022-12-15T23:23:12.542Z,28.97
2022-12-15T23:25:39.083Z,28.87
2022-12-15T23:28:05.686Z,29.60
2022-12-15T23:30:34.709Z,28.57
2022-12-15T23:33:01.277Z,27.50
2022-12-15T23:35:30.085Z,27.70
2022-12-15T23:37:58.251Z,28.23
2022-12-15T23:40:27.039Z,27.63
2022-12-15T23:42:55.846Z,26.97
2022-12-15T23:45:27.987Z,29.07
2022-12-15T23:47:54.508Z,27.20
2022-12-15T23:50:21.081Z,28.63
2022-12-15T23:52:51.278Z,29.10
2022-12-15T23:55:19.220Z,27.50
2022-12-15T23:57:48.395Z,28.07
